»·PEaware :: AAL1182 KSMF-KLAS

AAL1182 :: KSMF-KLAS

FLIGHT INFORMATION

Flight Status: Arrived
Operator:
American Airlines
More flights by this operator :: More flights under this callsign
Pilot: Kyle S. (20700)
Aircraft: BOEING 737-800
(B738)
More flights by this aircraft type
Origin: KSMF Sacramento Intl
United States
Destination: KLAS McCarran Intl
United States
More flights between these airports :: More routes between these airports
Route: +RVRCT2 RVRCT DOSCO OAL LIDAT BTY SUNST4
File this flight plan on PilotEdge
Remarks:
Altitude:
(Current/Filed)
35,000ft
Speed:
(Current/Filed)
450kts
Departed: 08-Oct-18 08:27 AM
Arrived: 08-Oct-18 09:41 AM
Distance/Time
Traveled:
345nm/1:14
Distance/Time
To Go:
Arrived

Flight Plot

Page will automatically refresh every two minutes.

Flight plan parsing failed; only flown route is shown


Map Options




Map Legend


Flown Route
Filed Route
Departure Airport
Arrival Airport
Navaid (VOR, NDB)
Fix

Horizontal Profiles

Position Reports

Time Latitude Longitude Heading Altitude Ground
Speed
08-Oct-18 07:49 38.695152 -121.594525 25 27ft 0kts
08-Oct-18 07:50 38.695152 -121.594525 25 27ft 0kts
08-Oct-18 07:51 38.695152 -121.594525 25 27ft 0kts
08-Oct-18 07:52 38.695152 -121.594525 25 27ft 0kts
08-Oct-18 07:53 38.695152 -121.594525 25 27ft 0kts
08-Oct-18 07:54 38.695152 -121.594525 25 27ft 0kts
08-Oct-18 07:55 38.695152 -121.594525 25 27ft 0kts
08-Oct-18 07:56 38.695152 -121.594525 25 27ft 0kts
08-Oct-18 07:57 38.695152 -121.594525 25 27ft 0kts
08-Oct-18 07:58 38.695152 -121.594525 25 27ft 0kts
08-Oct-18 07:59 38.695152 -121.594525 25 27ft 0kts
08-Oct-18 08:00 38.695152 -121.594525 25 27ft 0kts
08-Oct-18 08:01 38.695152 -121.594525 25 27ft 0kts
08-Oct-18 08:02 38.695152 -121.594525 25 27ft 0kts
08-Oct-18 08:03 38.695152 -121.594525 25 27ft 0kts
08-Oct-18 08:04 38.695152 -121.594525 25 27ft 0kts
08-Oct-18 08:05 38.695152 -121.594525 25 27ft 0kts
08-Oct-18 08:06 38.695152 -121.594525 25 27ft 0kts
08-Oct-18 08:07 38.695152 -121.594525 25 27ft 0kts
08-Oct-18 08:08 38.695152 -121.594525 25 27ft 0kts
08-Oct-18 08:09 38.695152 -121.594525 25 27ft 0kts
08-Oct-18 08:10 38.695152 -121.594525 25 27ft 0kts
08-Oct-18 08:11 38.695152 -121.594525 25 27ft 0kts
08-Oct-18 08:12 38.695152 -121.594525 25 27ft 0kts
08-Oct-18 08:13 38.695152 -121.594525 25 27ft 0kts
08-Oct-18 08:14 38.695152 -121.594525 25 27ft 0kts
08-Oct-18 08:15 38.695152 -121.594525 25 27ft 0kts
08-Oct-18 08:16 38.695152 -121.594525 25 27ft 0kts
08-Oct-18 08:17 38.695152 -121.594525 25 27ft 0kts
08-Oct-18 08:18 38.695152 -121.594525 25 27ft 0kts
08-Oct-18 08:19 38.695084 -121.594565 15 27ft 2kts
08-Oct-18 08:20 38.694614 -121.594280 314 28ft 0kts
08-Oct-18 08:21 38.694610 -121.594275 315 28ft 0kts
08-Oct-18 08:22 38.692739 -121.597090 224 27ft 15kts
08-Oct-18 08:23 38.691566 -121.598698 186 26ft 12kts
08-Oct-18 08:24 38.686911 -121.598784 180 24ft 19kts
08-Oct-18 08:25 38.683834 -121.599785 270 24ft 0kts
08-Oct-18 08:26 38.683834 -121.599785 270 24ft 0kts
08-Oct-18 08:27 38.683834 -121.599785 270 24ft 0kts
08-Oct-18 08:28 38.684425 -121.601460 355 24ft 24kts
08-Oct-18 08:29 38.717314 -121.599267 16 725ft 173kts
08-Oct-18 08:30 38.729044 -121.545663 97 2069ft 246kts
08-Oct-18 08:31 38.717651 -121.463346 97 4445ft 269kts
08-Oct-18 08:32 38.704134 -121.367556 95 7222ft 280kts
08-Oct-18 08:33 38.685347 -121.270716 102 9766ft 293kts
08-Oct-18 08:34 38.659971 -121.165451 100 11661ft 323kts
08-Oct-18 08:35 38.633519 -121.053584 102 14223ft 335kts
08-Oct-18 08:36 38.606170 -120.937506 103 16834ft 349kts
08-Oct-18 08:37 38.577742 -120.816279 102 18973ft 367kts
08-Oct-18 08:38 38.548824 -120.692515 102 18977ft 362kts
08-Oct-18 08:39 38.519977 -120.568441 101 20779ft 372kts
08-Oct-18 08:40 38.490166 -120.439663 100 22839ft 386kts
08-Oct-18 08:41 38.459681 -120.307359 100 24676ft 399kts
08-Oct-18 08:42 38.429010 -120.169968 96 26397ft 408kts
08-Oct-18 08:43 38.403318 -120.028716 96 28329ft 410kts
08-Oct-18 08:44 38.377099 -119.887598 95 30102ft 409kts
08-Oct-18 08:45 38.351075 -119.746861 94 31701ft 409kts
08-Oct-18 08:46 38.325258 -119.606303 94 33117ft 409kts
08-Oct-18 08:47 38.299522 -119.465214 93 34458ft 407kts
08-Oct-18 08:48 38.274322 -119.326143 94 35091ft 408kts
08-Oct-18 08:49 38.248051 -119.179989 94 35124ft 441kts
08-Oct-18 08:50 38.219987 -119.022988 94 35110ft 469kts
08-Oct-18 08:51 38.191274 -118.861491 92 35109ft 465kts
08-Oct-18 08:52 38.163129 -118.701408 91 35116ft 463kts
08-Oct-18 08:53 38.135306 -118.542184 90 35109ft 463kts
08-Oct-18 08:54 38.107556 -118.382180 90 35109ft 462kts
08-Oct-18 08:55 38.080600 -118.225507 91 35108ft 464kts
08-Oct-18 08:56 38.064237 -118.129879 91 35106ft 463kts
08-Oct-18 08:57 38.037278 -117.971355 90 35088ft 463kts
08-Oct-18 08:58 37.999310 -117.813698 109 35078ft 489kts
08-Oct-18 08:59 37.922476 -117.699629 136 35084ft 521kts
08-Oct-18 09:00 37.912730 -117.690483 138 35088ft 523kts
08-Oct-18 09:01 37.792729 -117.589571 139 35076ft 524kts
08-Oct-18 09:02 37.672201 -117.485895 139 35078ft 525kts
08-Oct-18 09:03 37.553289 -117.383773 139 35078ft 525kts
08-Oct-18 09:04 37.433422 -117.280683 139 35082ft 526kts
08-Oct-18 09:05 37.312859 -117.178200 140 35086ft 525kts
08-Oct-18 09:06 37.191761 -117.075791 139 35090ft 526kts
08-Oct-18 09:07 37.070069 -116.973246 139 35092ft 530kts
08-Oct-18 09:08 36.947090 -116.870005 139 35082ft 535kts
08-Oct-18 09:09 36.825884 -116.769054 142 32512ft 531kts
08-Oct-18 09:10 36.740074 -116.667194 117 29864ft 503kts
08-Oct-18 09:11 36.638172 -116.515836 125 25735ft 507kts
08-Oct-18 09:12 36.562269 -116.408522 125 24019ft 490kts
08-Oct-18 09:13 36.457610 -116.260611 126 23981ft 500kts
08-Oct-18 09:14 36.381005 -116.152768 126 23983ft 499kts
08-Oct-18 09:15 36.289385 -116.024297 126 23376ft 490kts
08-Oct-18 09:16 36.203634 -115.898466 115 20327ft 461kts
08-Oct-18 09:17 36.155030 -115.759383 106 17458ft 431kts
08-Oct-18 09:18 36.111761 -115.624480 107 15946ft 422kts
08-Oct-18 09:19 36.068167 -115.489713 107 15933ft 423kts
08-Oct-18 09:20 36.030718 -115.365816 95 15900ft 381kts
08-Oct-18 09:21 36.021722 -115.251476 89 15658ft 284kts
08-Oct-18 09:22 36.015317 -115.158131 89 13727ft 263kts
08-Oct-18 09:23 36.009433 -115.069899 90 11235ft 255kts
08-Oct-18 09:24 36.004383 -114.983777 90 8834ft 249kts
08-Oct-18 09:25 35.999429 -114.901388 90 7904ft 219kts
08-Oct-18 09:26 35.995586 -114.830872 91 6892ft 201kts
08-Oct-18 09:27 36.014780 -114.782760 344 5345ft 172kts
08-Oct-18 09:28 36.036266 -114.832815 279 4616ft 178kts
08-Oct-18 09:29 36.049030 -114.889223 296 4819ft 168kts
08-Oct-18 09:30 36.063704 -114.945616 291 4997ft 172kts
08-Oct-18 09:31 36.073459 -115.003794 278 4032ft 165kts
08-Oct-18 09:32 36.073686 -115.059093 274 3143ft 150kts
08-Oct-18 09:33 36.072979 -115.109571 255 2371ft 149kts
08-Oct-18 09:34 36.060918 -115.156695 272 2818ft 150kts
08-Oct-18 09:35 36.050578 -115.208684 224 3381ft 186kts
08-Oct-18 09:36 36.009331 -115.185394 98 5097ft 221kts
08-Oct-18 09:37 35.999595 -115.106396 94 5123ft 236kts
08-Oct-18 09:38 35.997733 -115.022888 68 4847ft 244kts
08-Oct-18 09:39 36.049648 -114.985874 349 3665ft 213kts
08-Oct-18 09:40 36.074463 -115.034926 264 2588ft 172kts
08-Oct-18 09:41 36.073757 -115.090378 273 2622ft 161kts
08-Oct-18 09:42 36.073723 -115.138636 269 2081ft 52kts
08-Oct-18 09:43 36.074466 -115.145257 297 2101ft 21kts
08-Oct-18 09:44 36.078097 -115.150302 275 2112ft 21kts
08-Oct-18 09:45 36.081139 -115.151139 52 2110ft 20kts
08-Oct-18 09:46 36.082366 -115.150521 321 2105ft 0kts
08-Oct-18 09:47 36.082366 -115.150521 321 2105ft 0kts
08-Oct-18 09:48 36.082366 -115.150521 321 2105ft 0kts
08-Oct-18 09:49 36.082366 -115.150521 321 2105ft 0kts
08-Oct-18 09:50 36.082366 -115.150521 321 2105ft 0kts
08-Oct-18 09:51 36.082366 -115.150521 321 2105ft 0kts
08-Oct-18 09:52 36.082366 -115.150521 321 2105ft 0kts
08-Oct-18 09:53 36.082366 -115.150521 321 2105ft 0kts
08-Oct-18 09:54 36.082366 -115.150521 321 2105ft 0kts
08-Oct-18 09:55 36.082366 -115.150521 321 2105ft 0kts
08-Oct-18 09:56 36.082366 -115.150521 321 2105ft 0kts
08-Oct-18 09:57 36.082366 -115.150521 321 2105ft 0kts

Navigation Log

Ident Type
Flight plan parsing failed, navigation log unavailable